createdAt,value
2023-04-17T00:01:53.044Z,100628.66
2023-04-17T00:04:58.122Z,100621.88
2023-04-17T00:08:03.310Z,100646.19
2023-04-17T00:11:09.108Z,100639.06
2023-04-17T00:14:13.616Z,100652.13
2023-04-17T00:17:17.855Z,100650.56
2023-04-17T00:20:21.980Z,100663.28
2023-04-17T00:23:27.577Z,100672.47
2023-04-17T00:26:33.364Z,100668.22
2023-04-17T00:29:38.358Z,100641.47
2023-04-17T00:32:43.008Z,100656.97
2023-04-17T00:35:46.907Z,100642.63
2023-04-17T00:38:53.207Z,100667.91
2023-04-17T00:41:58.344Z,100674.47
2023-04-17T00:45:02.851Z,100681.88
2023-04-17T00:48:09.830Z,100650.84
2023-04-17T00:51:14.405Z,100664.94
2023-04-17T00:54:20.105Z,100663.19
2023-04-17T00:57:26.232Z,100680.22
2023-04-17T01:00:30.738Z,100673.78
2023-04-17T01:03:35.420Z,100676.09
2023-04-17T01:06:40.269Z,100673.97
2023-04-17T01:09:44.483Z,100639.50
2023-04-17T01:12:50.121Z,100677.47
2023-04-17T01:15:54.669Z,100671.72
2023-04-17T01:18:59.097Z,100677.16
2023-04-17T01:22:03.537Z,100663.31
2023-04-17T01:25:07.756Z,100667.56
2023-04-17T01:28:17.966Z,100671.56
2023-04-17T01:31:23.017Z,100680.38
2023-04-17T01:34:28.194Z,100671.25
2023-04-17T01:37:32.708Z,100685.03
2023-04-17T01:40:37.260Z,100674.72
2023-04-17T01:43:45.116Z,100687.44
2023-04-17T01:46:49.545Z,100653.78
2023-04-17T01:49:53.988Z,100660.22
2023-04-17T01:52:58.106Z,100636.03
2023-04-17T01:56:02.875Z,100667.28
2023-04-17T01:59:06.893Z,100631.81
2023-04-17T02:02:11.454Z,100656.47
2023-04-17T02:05:15.650Z,100646.38
2023-04-17T02:08:21.217Z,100661.94
2023-04-17T02:11:25.680Z,100656.88
2023-04-17T02:14:32.104Z,100651.34
2023-04-17T02:17:36.216Z,100634.66
2023-04-17T02:20:40.697Z,100624.78
2023-04-17T02:23:45.470Z,100588.28
2023-04-17T02:26:50.476Z,100654.16
2023-04-17T02:29:54.414Z,100646.88
2023-04-17T02:32:59.965Z,100649.88
2023-04-17T02:36:04.790Z,100663.53
2023-04-17T02:39:20.672Z,100614.31
2023-04-17T02:42:25.374Z,100623.00
2023-04-17T02:45:29.840Z,100586.44
2023-04-17T02:48:33.917Z,100652.25
2023-04-17T02:51:38.296Z,100626.84
2023-04-17T02:54:42.641Z,100633.38
2023-04-17T02:57:48.392Z,100621.84
2023-04-17T03:00:53.542Z,100610.41
2023-04-17T03:03:58.478Z,100615.00
2023-04-17T03:07:07.514Z,100631.78
2023-04-17T03:10:12.557Z,100595.34
2023-04-17T03:13:17.403Z,100596.44
2023-04-17T03:16:22.209Z,100592.78
2023-04-17T03:19:27.050Z,100595.56
2023-04-17T03:22:31.510Z,100624.28
2023-04-17T03:25:36.039Z,100592.06
2023-04-17T03:28:40.252Z,100628.84
2023-04-17T03:31:44.998Z,100633.16
2023-04-17T03:34:49.179Z,100616.94
2023-04-17T03:37:53.106Z,100611.94
2023-04-17T03:40:57.981Z,100627.78
2023-04-17T03:44:02.902Z,100603.72
2023-04-17T03:47:07.385Z,100596.13
2023-04-17T03:50:12.609Z,100613.94
2023-04-17T03:53:24.309Z,100591.13
2023-04-17T03:56:31.051Z,100612.16
2023-04-17T03:59:36.740Z,100615.53
2023-04-17T04:02:41.944Z,100611.88
2023-04-17T04:05:46.698Z,100614.31
2023-04-17T04:08:51.506Z,100614.56
2023-04-17T04:11:56.328Z,100626.22
2023-04-17T04:15:01.416Z,100615.84
2023-04-17T04:18:08.174Z,100611.47
2023-04-17T04:21:13.367Z,100612.06
2023-04-17T04:24:21.149Z,100589.47
2023-04-17T04:27:26.034Z,100595.00
2023-04-17T04:30:36.695Z,100606.06
2023-04-17T04:33:48.880Z,100586.06
2023-04-17T04:36:53.489Z,100559.00
2023-04-17T04:40:17.835Z,100591.22
2023-04-17T04:43:23.051Z,100596.78
2023-04-17T04:46:31.185Z,100590.44
2023-04-17T04:49:37.010Z,100602.72
2023-04-17T04:52:41.198Z,100612.47
2023-04-17T04:55:58.277Z,100590.63
2023-04-17T04:59:04.497Z,100591.81
2023-04-17T05:02:12.211Z,100589.56
2023-04-17T05:05:16.787Z,100615.22
2023-04-17T05:08:22.206Z,100600.19
2023-04-17T05:11:36.427Z,100587.44
2023-04-17T05:14:41.461Z,100590.75
2023-04-17T05:17:46.381Z,100599.91
2023-04-17T05:20:52.581Z,100593.72
2023-04-17T05:23:58.264Z,100601.66
2023-04-17T05:27:04.049Z,100587.53
2023-04-17T05:30:09.481Z,100577.28
2023-04-17T05:33:13.980Z,100610.38
2023-04-17T05:36:27.921Z,100579.66
2023-04-17T05:39:37.292Z,100586.25
2023-04-17T05:42:41.299Z,100570.81
2023-04-17T05:45:46.880Z,100596.63
2023-04-17T05:48:51.348Z,100582.97
2023-04-17T05:51:56.026Z,100566.28
2023-04-17T05:55:00.752Z,100592.47
2023-04-17T05:58:20.470Z,100591.44
2023-04-17T06:01:27.926Z,100577.09
2023-04-17T06:04:35.822Z,100592.34
2023-04-17T06:07:41.235Z,100581.19
2023-04-17T06:10:46.858Z,100614.38
2023-04-17T06:13:52.704Z,100584.09
2023-04-17T06:16:58.436Z,100595.88
2023-04-17T06:20:03.015Z,100582.13
2023-04-17T06:23:07.105Z,100613.28
2023-04-17T06:26:11.750Z,100605.59
2023-04-17T06:29:17.477Z,100589.91
2023-04-17T06:32:21.728Z,100595.22
2023-04-17T06:35:26.358Z,100607.09
2023-04-17T06:38:36.634Z,100581.84
2023-04-17T06:41:41.604Z,100594.25
2023-04-17T06:44:46.109Z,100624.44
2023-04-17T06:47:50.512Z,100598.69
2023-04-17T06:50:55.060Z,100632.06
2023-04-17T06:54:00.255Z,100624.31
2023-04-17T06:57:07.214Z,100607.84
2023-04-17T07:00:13.338Z,100610.78
2023-04-17T07:03:18.315Z,100613.94
2023-04-17T07:06:24.169Z,100613.28
2023-04-17T07:09:28.205Z,100633.06
2023-04-17T07:12:32.886Z,100604.56
2023-04-17T07:15:37.658Z,100587.22
2023-04-17T07:18:42.500Z,100630.41
2023-04-17T07:21:47.236Z,100610.50
2023-04-17T07:24:51.723Z,100637.69
2023-04-17T07:27:56.891Z,100642.25
2023-04-17T07:31:01.312Z,100635.84
2023-04-17T07:34:06.065Z,100632.78
2023-04-17T07:37:10.173Z,100620.56
2023-04-17T07:40:15.277Z,100622.16
2023-04-17T07:43:19.621Z,100643.41
2023-04-17T07:46:23.478Z,100642.38
2023-04-17T07:49:27.537Z,100646.63
2023-04-17T07:52:31.934Z,100649.81
2023-04-17T07:55:36.677Z,100655.72
2023-04-17T07:58:40.804Z,100660.13
2023-04-17T08:01:44.984Z,100622.56
2023-04-17T08:04:49.239Z,100670.47
2023-04-17T08:07:53.647Z,100668.91
2023-04-17T08:10:57.989Z,100642.28
2023-04-17T08:14:03.769Z,100668.44
2023-04-17T08:17:08.231Z,100663.72
2023-04-17T08:20:12.609Z,100669.72
2023-04-17T08:23:17.249Z,100650.88
2023-04-17T08:26:21.626Z,100627.63
2023-04-17T08:29:26.103Z,100678.44
2023-04-17T08:32:30.868Z,100661.16
2023-04-17T08:35:34.891Z,100654.50
2023-04-17T08:38:39.498Z,100661.81
2023-04-17T08:41:57.534Z,100682.06
2023-04-17T08:45:05.909Z,100666.91
2023-04-17T08:48:10.588Z,100672.59
2023-04-17T08:51:16.604Z,100687.41
2023-04-17T08:54:22.876Z,100668.13
2023-04-17T08:57:27.080Z,100642.84
2023-04-17T09:00:34.147Z,100674.03
2023-04-17T09:03:46.016Z,100672.34
2023-04-17T09:06:55.075Z,100680.34
2023-04-17T09:09:59.105Z,100684.06
2023-04-17T09:13:03.367Z,100662.34
2023-04-17T09:16:09.910Z,100668.66
2023-04-17T09:19:14.527Z,100648.41
2023-04-17T09:22:23.665Z,100687.09
2023-04-17T09:25:29.087Z,100677.72
2023-04-17T09:28:36.277Z,100667.47
2023-04-17T09:31:43.374Z,100685.09
2023-04-17T09:34:47.977Z,100692.03
2023-04-17T09:38:00.035Z,100685.31
2023-04-17T09:41:04.010Z,100693.25
2023-04-17T09:44:08.355Z,100655.81
2023-04-17T09:47:13.842Z,100710.91
2023-04-17T09:50:22.530Z,100709.34
2023-04-17T09:53:27.755Z,100707.72
2023-04-17T09:56:34.571Z,100717.44
2023-04-17T09:59:44.037Z,100665.91
2023-04-17T10:02:52.991Z,100710.69
2023-04-17T10:05:59.431Z,100701.19
2023-04-17T10:09:09.018Z,100729.31
2023-04-17T10:12:18.989Z,100743.53
2023-04-17T10:15:24.571Z,100735.81
2023-04-17T10:18:29.212Z,100728.88
2023-04-17T10:21:35.889Z,100734.22
2023-04-17T10:24:40.569Z,100729.03
2023-04-17T10:27:47.313Z,100708.91
2023-04-17T10:30:55.640Z,100752.81
2023-04-17T10:34:01.793Z,100753.78
2023-04-17T10:37:06.183Z,100739.81
2023-04-17T10:40:13.527Z,100760.03
2023-04-17T10:43:21.297Z,100762.66
2023-04-17T10:46:27.526Z,100734.59
2023-04-17T10:49:51.983Z,100777.56
2023-04-17T10:52:57.321Z,100771.41
2023-04-17T10:56:03.626Z,100782.84
2023-04-17T10:59:12.995Z,100796.88
2023-04-17T11:02:17.665Z,100789.78
2023-04-17T11:05:23.813Z,100774.81
2023-04-17T11:08:29.671Z,100770.44
2023-04-17T11:11:47.127Z,100755.53
2023-04-17T11:14:51.662Z,100798.53
2023-04-17T11:17:57.859Z,100809.94
2023-04-17T11:21:03.173Z,100803.72
2023-04-17T11:24:07.877Z,100805.34
2023-04-17T11:27:12.142Z,100800.88
2023-04-17T11:30:26.391Z,100795.38
2023-04-17T11:33:38.389Z,100798.91
2023-04-17T11:36:53.018Z,100815.59
2023-04-17T11:40:12.853Z,100818.06
2023-04-17T11:43:18.409Z,100818.00
2023-04-17T11:46:24.298Z,100796.09
2023-04-17T11:49:31.326Z,100806.47
2023-04-17T11:52:35.934Z,100826.75
2023-04-17T11:55:40.798Z,100820.31
2023-04-17T11:59:05.951Z,100838.53
2023-04-17T12:02:10.988Z,100833.19
2023-04-17T12:05:18.613Z,100839.16
2023-04-17T12:08:26.895Z,100825.00
2023-04-17T12:11:34.480Z,100815.94
2023-04-17T12:14:39.909Z,100826.47
2023-04-17T12:17:43.830Z,100840.44
2023-04-17T12:20:49.958Z,100837.88
2023-04-17T12:23:54.591Z,100842.22
2023-04-17T12:27:02.603Z,100828.16
2023-04-17T12:30:07.585Z,100834.84
2023-04-17T12:33:11.995Z,100825.16
2023-04-17T12:36:18.293Z,100833.66
2023-04-17T12:39:22.308Z,100842.38
2023-04-17T12:42:26.781Z,100837.13
2023-04-17T12:45:34.449Z,100814.72
2023-04-17T12:48:39.241Z,100829.78
2023-04-17T12:51:44.001Z,100817.47
2023-04-17T12:54:48.523Z,100821.13
2023-04-17T12:57:53.815Z,100847.16
2023-04-17T13:00:58.223Z,100851.13
2023-04-17T13:04:03.249Z,100825.66
2023-04-17T13:07:07.444Z,100825.97
2023-04-17T13:10:11.918Z,100853.72
2023-04-17T13:13:16.647Z,100823.28
2023-04-17T13:16:21.428Z,100771.09
2023-04-17T13:19:25.913Z,100822.72
2023-04-17T13:22:30.283Z,100795.03
2023-04-17T13:25:35.251Z,100837.25
2023-04-17T13:28:40.847Z,100822.25
2023-04-17T13:31:45.328Z,100815.09
2023-04-17T13:34:50.914Z,100829.34
2023-04-17T13:37:56.653Z,100849.59
2023-04-17T13:41:01.195Z,100825.50
2023-04-17T13:44:07.929Z,100847.00
2023-04-17T13:47:14.690Z,100849.25
2023-04-17T13:50:19.280Z,100841.50
2023-04-17T13:53:23.662Z,100841.97
2023-04-17T13:56:29.092Z,100839.09
2023-04-17T13:59:36.516Z,100847.97
2023-04-17T14:02:41.427Z,100849.88
2023-04-17T14:05:46.301Z,100845.31
2023-04-17T14:08:50.885Z,100859.53
2023-04-17T14:11:55.324Z,100851.03
2023-04-17T14:14:59.475Z,100840.34
2023-04-17T14:18:03.550Z,100825.03
2023-04-17T14:21:08.229Z,100855.47
2023-04-17T14:24:12.837Z,100830.06
2023-04-17T14:27:17.803Z,100859.22
2023-04-17T14:30:21.913Z,100853.47
2023-04-17T14:33:26.610Z,100838.13
2023-04-17T14:36:32.115Z,100869.69
2023-04-17T14:39:36.395Z,100865.88
2023-04-17T14:42:53.617Z,100870.31
2023-04-17T14:45:59.236Z,100868.31
2023-04-17T14:49:04.405Z,100864.66
2023-04-17T14:52:08.821Z,100869.03
2023-04-17T14:55:13.494Z,100848.00
2023-04-17T14:58:17.972Z,100851.84
2023-04-17T15:01:22.087Z,100850.28
2023-04-17T15:04:29.614Z,100834.22
2023-04-17T15:07:34.236Z,100833.56
2023-04-17T15:10:50.247Z,100846.69
2023-04-17T15:13:56.153Z,100851.41
2023-04-17T15:17:03.251Z,100857.72
2023-04-17T15:20:08.311Z,100840.91
2023-04-17T15:23:12.817Z,100857.75
2023-04-17T15:26:17.254Z,100871.53
2023-04-17T15:29:21.600Z,100854.47
2023-04-17T15:32:27.492Z,100846.72
2023-04-17T15:35:31.774Z,100858.84
2023-04-17T15:38:35.945Z,100864.72
2023-04-17T15:41:42.756Z,100847.09
2023-04-17T15:44:47.579Z,100876.50
2023-04-17T15:47:52.329Z,100865.31
2023-04-17T15:50:57.068Z,100854.69
2023-04-17T15:54:01.483Z,100862.69
2023-04-17T15:57:06.398Z,100860.84
2023-04-17T16:00:11.727Z,100768.25
2023-04-17T16:03:15.628Z,100859.09
2023-04-17T16:06:21.284Z,100863.31
2023-04-17T16:09:25.253Z,100862.59
2023-04-17T16:12:29.437Z,100837.69
2023-04-17T16:15:33.824Z,100856.66
2023-04-17T16:18:38.533Z,100864.31
2023-04-17T16:21:42.666Z,100844.69
2023-04-17T16:24:47.534Z,100864.16
2023-04-17T16:27:52.425Z,100862.94
2023-04-17T16:30:57.079Z,100857.38
2023-04-17T16:34:01.436Z,100855.13
2023-04-17T16:37:05.970Z,100838.22
2023-04-17T16:40:10.713Z,100854.63
2023-04-17T16:43:14.639Z,100855.09
2023-04-17T16:46:26.123Z,100835.16
2023-04-17T16:49:36.357Z,100824.38
2023-04-17T16:52:44.637Z,100807.16
2023-04-17T16:55:49.283Z,100835.16
2023-04-17T16:58:53.746Z,100842.38
2023-04-17T17:02:00.089Z,100834.56
2023-04-17T17:05:06.929Z,100836.78
2023-04-17T17:08:11.704Z,100835.13
2023-04-17T17:11:17.860Z,100832.22
2023-04-17T17:14:24.768Z,100834.34
2023-04-17T17:17:29.079Z,100828.44
2023-04-17T17:20:33.249Z,100832.38
2023-04-17T17:23:38.783Z,100809.19
2023-04-17T17:26:43.488Z,100814.66
2023-04-17T17:29:48.168Z,100802.50
2023-04-17T17:32:52.709Z,100815.44
2023-04-17T17:35:57.118Z,100639.00
2023-04-17T17:39:01.118Z,100834.69
2023-04-17T17:42:09.433Z,100824.22
2023-04-17T17:45:13.936Z,100824.09
2023-04-17T17:48:21.155Z,100740.47
2023-04-17T17:51:25.662Z,100819.75
2023-04-17T17:54:30.417Z,100825.56
2023-04-17T17:57:46.062Z,100770.09
2023-04-17T18:00:52.878Z,100714.13
2023-04-17T18:03:57.548Z,100767.38
2023-04-17T18:07:02.291Z,100749.28
2023-04-17T18:10:07.221Z,100778.56
2023-04-17T18:13:11.964Z,100749.72
2023-04-17T18:16:16.679Z,100719.72
2023-04-17T18:19:21.396Z,100791.22
2023-04-17T18:22:25.490Z,100788.41
2023-04-17T18:25:29.786Z,100792.16
2023-04-17T18:28:34.701Z,100744.69
2023-04-17T18:31:39.280Z,100752.94
2023-04-17T18:34:44.769Z,100765.41
2023-04-17T18:37:52.016Z,100681.59
2023-04-17T18:40:59.159Z,100780.56
2023-04-17T18:44:06.924Z,100776.72
2023-04-17T18:47:13.843Z,100757.41
2023-04-17T18:50:21.263Z,100780.41
2023-04-17T18:53:35.890Z,100787.34
2023-04-17T18:56:46.315Z,100777.06
2023-04-17T18:59:50.716Z,100771.63
2023-04-17T19:02:55.044Z,100666.13
2023-04-17T19:05:59.418Z,100764.66
2023-04-17T19:09:07.274Z,100724.28
2023-04-17T19:12:12.013Z,100746.00
2023-04-17T19:15:20.021Z,100727.25
2023-04-17T19:18:24.726Z,100774.03
2023-04-17T19:21:29.150Z,100749.88
2023-04-17T19:24:37.453Z,100734.41
2023-04-17T19:27:46.933Z,100706.75
2023-04-17T19:30:51.632Z,100754.06
2023-04-17T19:33:58.578Z,100736.94
2023-04-17T19:37:06.182Z,100709.34
2023-04-17T19:40:21.309Z,100721.63
2023-04-17T19:43:37.089Z,100688.38
2023-04-17T19:46:41.614Z,100718.06
2023-04-17T19:49:46.168Z,100734.53
2023-04-17T19:52:51.598Z,100734.38
2023-04-17T19:55:59.008Z,100739.13
2023-04-17T19:59:03.980Z,100727.97
2023-04-17T20:02:08.162Z,100710.50
2023-04-17T20:05:12.659Z,100734.34
2023-04-17T20:08:17.119Z,100681.59
2023-04-17T20:11:21.392Z,100679.31
2023-04-17T20:14:26.568Z,100726.28
2023-04-17T20:17:30.540Z,100712.38
2023-04-17T20:20:36.655Z,100730.28
2023-04-17T20:23:40.873Z,100687.47
2023-04-17T20:26:45.029Z,100662.44
2023-04-17T20:29:49.330Z,100702.66
2023-04-17T20:32:53.818Z,100719.16
2023-04-17T20:35:58.520Z,100708.63
2023-04-17T20:39:03.026Z,100689.53
2023-04-17T20:42:08.403Z,100673.97
2023-04-17T20:45:25.224Z,100635.72
2023-04-17T20:48:29.603Z,100638.19
2023-04-17T20:51:34.059Z,100690.31
2023-04-17T20:54:38.521Z,100695.22
2023-04-17T20:58:07.899Z,100708.34
2023-04-17T21:01:12.501Z,100640.34
2023-04-17T21:04:17.293Z,100686.22
2023-04-17T21:07:21.883Z,100704.41
2023-04-17T21:10:26.386Z,100705.50
2023-04-17T21:13:31.756Z,100712.31
2023-04-17T21:16:36.643Z,100691.59
2023-04-17T21:19:41.649Z,100692.53
2023-04-17T21:22:46.186Z,100648.94
2023-04-17T21:25:54.298Z,100671.16
2023-04-17T21:28:58.442Z,100687.66
2023-04-17T21:32:04.541Z,100644.06
2023-04-17T21:35:09.913Z,100676.69
2023-04-17T21:38:16.177Z,100665.25
2023-04-17T21:41:20.329Z,100673.81
2023-04-17T21:44:24.559Z,100598.22
2023-04-17T21:47:29.205Z,100662.41
2023-04-17T21:50:33.602Z,100612.19
2023-04-17T21:53:38.783Z,100664.28
2023-04-17T21:56:43.875Z,100652.63
2023-04-17T21:59:48.423Z,100653.66
2023-04-17T22:02:53.059Z,100633.41
2023-04-17T22:05:58.710Z,100642.16
2023-04-17T22:09:03.275Z,100627.22
2023-04-17T22:12:24.055Z,100633.47
2023-04-17T22:15:28.314Z,100626.31
2023-04-17T22:18:32.763Z,100632.25
2023-04-17T22:21:36.537Z,100631.38
2023-04-17T22:24:43.242Z,100619.25
2023-04-17T22:27:48.383Z,100615.78
2023-04-17T22:30:53.064Z,100599.00
2023-04-17T22:33:57.635Z,100601.94
2023-04-17T22:37:02.361Z,100570.56
2023-04-17T22:40:07.545Z,100598.53
2023-04-17T22:43:11.628Z,100587.06
2023-04-17T22:46:16.021Z,100577.53
2023-04-17T22:49:20.537Z,100554.94
2023-04-17T22:52:24.984Z,100566.94
2023-04-17T22:55:29.370Z,100571.59
2023-04-17T22:58:35.366Z,100555.19
2023-04-17T23:01:39.760Z,100570.25
2023-04-17T23:04:44.261Z,100534.78
2023-04-17T23:07:48.640Z,100524.16
2023-04-17T23:11:04.310Z,100534.50
2023-04-17T23:14:09.040Z,100552.09
2023-04-17T23:17:13.247Z,100536.34
2023-04-17T23:20:17.842Z,100526.13
2023-04-17T23:23:22.430Z,100517.19
2023-04-17T23:26:26.702Z,100541.19
2023-04-17T23:29:31.109Z,100488.06
2023-04-17T23:32:35.652Z,100499.34
2023-04-17T23:35:39.775Z,100486.88
2023-04-17T23:38:44.071Z,100507.03
2023-04-17T23:41:48.736Z,100516.03
2023-04-17T23:44:53.750Z,100502.41
2023-04-17T23:47:58.443Z,100515.00
2023-04-17T23:51:02.703Z,100495.81
2023-04-17T23:54:08.690Z,100509.47
2023-04-17T23:57:12.698Z,100491.06
